Time;durP1;ratioP1;P1;durP2;ratioP2;P2;SDS_P1;SDS_P2;PMS_P1;PMS_P2;Temp;Humidity;BMP_temperature;BMP_pressure;BME280_temperature;BME280_humidity;BME280_pressure;Samples;Min_cycle;Max_cycle;Signal;HPM_P1;HPM_P2
2022/03/19 00:00:09;;;;;;;11.88;8.95;;;;;;;5.18;64.99;103078.97;5051687;28;20061;-48
2022/03/19 00:02:40;;;;;;;10.10;8.38;;;;;;;5.19;65.46;103070.47;5052148;28;20060;-48
2022/03/19 00:05:09;;;;;;;9.77;8.13;;;;;;;5.19;65.50;103070.47;5057513;28;20068;-48
2022/03/19 00:07:40;;;;;;;11.20;8.57;;;;;;;5.14;65.47;103080.47;5058875;28;20481;-49
2022/03/19 00:10:10;;;;;;;9.65;8.27;;;;;;;5.08;65.48;103071.97;5058642;28;20052;-48
2022/03/19 00:12:38;;;;;;;;;;;;;;;5.04;65.63;103087.28;5059375;28;20053;-49
2022/03/19 00:15:07;;;;;;;11.52;8.55;;;;;;;4.97;65.23;103085.56;5058428;28;20385;-48
2022/03/19 00:17:34;;;;;;;11.25;8.95;;;;;;;4.91;65.23;103078.97;5057795;28;20420;-49
2022/03/19 00:20:02;;;;;;;12.25;8.63;;;;;;;4.90;65.41;103084.72;5054399;28;20059;-49
2022/03/19 00:22:29;;;;;;;11.90;9.35;;;;;;;4.85;65.56;103079.81;5058461;28;20082;-48
2022/03/19 00:24:58;;;;;;;11.27;8.98;;;;;;;4.81;65.71;103084.09;5058575;28;20056;-51
2022/03/19 00:27:27;;;;;;;11.63;8.83;;;;;;;4.77;65.92;103080.88;5057890;28;20052;-48
2022/03/19 00:29:55;;;;;;;10.40;7.82;;;;;;;4.75;65.64;103077.50;5058388;28;20057;-51
2022/03/19 00:32:23;;;;;;;11.57;7.95;;;;;;;4.74;65.79;103077.69;5058362;28;20052;-48
2022/03/19 00:34:50;;;;;;;10.07;7.93;;;;;;;4.75;65.53;103071.13;5057653;28;20052;-50
2022/03/19 00:37:17;;;;;;;13.60;8.55;;;;;;;4.71;65.65;103073.44;5058725;28;20056;-49
2022/03/19 00:39:45;;;;;;;10.75;8.18;;;;;;;4.70;65.55;103070.91;5057758;28;20045;-48
2022/03/19 00:42:12;;;;;;;9.20;7.82;;;;;;;4.67;65.77;103072.16;5053591;28;20060;-52
2022/03/19 00:44:42;;;;;;;11.18;8.93;;;;;;;4.63;65.72;103068.97;5050627;28;20048;-49
2022/03/19 00:47:09;;;;;;;11.02;8.68;;;;;;;4.60;66.09;103077.69;5047022;28;20057;-47
2022/03/19 00:49:36;;;;;;;12.20;8.75;;;;;;;4.51;65.92;103073.41;5051838;28;20494;-48
2022/03/19 00:52:04;;;;;;;10.98;8.75;;;;;;;4.51;66.13;103072.56;5053507;28;20477;-50
2022/03/19 00:54:32;;;;;;;11.40;8.55;;;;;;;4.49;66.30;103064.50;5045901;28;20048;-49
2022/03/19 00:56:59;;;;;;;10.93;8.23;;;;;;;4.50;65.80;103066.19;5053187;28;20049;-49
2022/03/19 00:59:27;;;;;;;12.82;8.60;;;;;;;4.46;65.87;103065.75;5057783;28;20505;-49
2022/03/19 01:01:57;;;;;;;10.73;8.10;;;;;;;4.47;65.67;103075.75;5042037;28;20048;-50
2022/03/19 01:04:24;;;;;;;;;;;;;;;4.41;66.25;103070.19;5057941;28;20045;-50
2022/03/19 01:06:51;;;;;;;12.60;9.13;;;;;;;4.37;66.20;103067.03;5053179;28;19920;-49
2022/03/19 01:09:18;;;;;;;11.55;8.15;;;;;;;4.34;65.82;103070.19;5053821;28;20064;-50
2022/03/19 01:11:45;;;;;;;11.43;9.00;;;;;;;4.32;66.21;103069.53;5045736;28;20044;-51
2022/03/19 01:14:13;;;;;;;11.93;7.97;;;;;;;4.23;66.32;103065.28;5057399;28;20056;-51
2022/03/19 01:16:40;;;;;;;13.73;8.98;;;;;;;4.19;66.50;103066.75;5051730;28;20048;-52
2022/03/19 01:19:09;;;;;;;9.05;7.97;;;;;;;4.17;66.30;103060.59;5051780;28;20496;-49
2022/03/19 01:21:36;;;;;;;11.18;8.32;;;;;;;4.16;66.76;103064.41;5037159;28;20057;-49
2022/03/19 01:24:04;;;;;;;10.55;8.07;;;;;;;4.15;66.44;103051.69;5040222;28;20072;-51
2022/03/19 01:26:31;;;;;;;9.63;7.35;;;;;;;4.14;66.15;103056.34;5040765;28;20502;-48
2022/03/19 01:28:59;;;;;;;9.75;7.40;;;;;;;4.11;66.60;103050.41;5034890;28;20407;-50
2022/03/19 01:31:26;;;;;;;12.32;8.77;;;;;;;4.09;66.67;103047.00;5049341;28;20056;-51
2022/03/19 01:33:57;;;;;;;9.95;8.02;;;;;;;4.04;67.16;103040.19;5045796;28;20045;-51
2022/03/19 01:36:26;;;;;;;11.18;8.00;;;;;;;4.00;66.95;103044.41;5055085;28;20504;-48
2022/03/19 01:38:53;;;;;;;10.88;8.75;;;;;;;3.95;67.14;103044.19;5038892;28;20053;-53
2022/03/19 01:41:21;;;;;;;9.45;7.82;;;;;;;3.93;67.35;103039.97;5046089;28;20174;-48
2022/03/19 01:43:48;;;;;;;9.40;7.63;;;;;;;3.90;67.11;103043.97;5051499;28;20052;-49
2022/03/19 01:46:16;;;;;;;10.65;8.40;;;;;;;3.90;67.25;103043.97;5045508;28;20053;-53
2022/03/19 01:48:46;;;;;;;10.20;7.72;;;;;;;3.88;67.63;103043.31;5047241;28;20049;-50
2022/03/19 01:51:14;;;;;;;13.77;8.57;;;;;;;3.86;67.62;103045.44;5035486;28;20050;-49
2022/03/19 01:53:43;;;;;;;10.95;7.90;;;;;;;3.85;67.51;103047.34;5041863;28;20397;-50
2022/03/19 01:56:10;;;;;;;12.43;8.07;;;;;;;3.83;67.47;103041.19;5038176;28;20058;-49
2022/03/19 01:58:38;;;;;;;10.43;7.32;;;;;;;3.81;67.37;103028.66;5033958;28;20062;-50
2022/03/19 02:01:05;;;;;;;12.82;7.97;;;;;;;3.79;67.74;103030.78;5035236;28;20053;-48
2022/03/19 02:03:32;;;;;;;11.52;7.82;;;;;;;3.75;67.58;103035.84;5048874;28;20529;-51
2022/03/19 02:06:01;;;;;;;10.80;7.50;;;;;;;3.75;67.82;103026.72;5043389;28;20064;-50
2022/03/19 02:08:29;;;;;;;12.98;8.10;;;;;;;3.75;68.10;103029.47;5053466;28;20061;-49
2022/03/19 02:10:58;;;;;;;10.07;7.82;;;;;;;3.74;67.84;103028.66;5042015;28;20483;-49
2022/03/19 02:13:25;;;;;;;9.43;8.07;;;;;;;3.74;67.68;103028.66;5034295;28;20053;-51
2022/03/19 02:15:53;;;;;;;9.60;7.20;;;;;;;3.70;68.22;103026.50;5050168;28;20059;-49
2022/03/19 02:18:20;;;;;;;10.80;8.40;;;;;;;3.66;67.79;103028.81;5049042;28;20049;-50
2022/03/19 02:20:51;;;;;;;12.10;9.38;;;;;;;3.65;68.01;103024.34;5051751;28;20052;-48
2022/03/19 02:26:09;;;;;;;12.23;8.30;;;;;;;3.56;68.22;103020.91;5057076;28;20128;-52
2022/03/19 02:28:36;;;;;;;11.90;7.40;;;;;;;3.55;67.79;103026.63;5050254;28;20056;-50
2022/03/19 02:31:06;;;;;;;11.98;7.85;;;;;;;3.50;68.10;103015.38;5044505;28;20049;-50
2022/03/19 02:33:33;;;;;;;;;;;;;;;3.47;68.81;103010.28;5044959;28;20064;-49
2022/03/19 02:36:01;;;;;;;11.18;8.05;;;;;;;3.48;67.63;103010.06;5036238;28;19932;-49
2022/03/19 02:38:29;;;;;;;11.90;8.23;;;;;;;3.45;68.24;103002.22;5033005;28;20053;-49
2022/03/19 02:40:57;;;;;;;12.55;8.52;;;;;;;3.41;67.84;103010.03;5033765;28;20066;-48
2022/03/19 02:43:24;;;;;;;10.48;7.35;;;;;;;3.39;68.21;103008.53;5049355;28;20060;-49
2022/03/19 02:45:51;;;;;;;12.90;7.78;;;;;;;3.37;68.58;103003.22;5052193;28;20414;-48
2022/03/19 02:48:18;;;;;;;13.13;8.68;;;;;;;3.35;68.01;103001.75;5044858;28;20100;-51
2022/03/19 02:50:46;;;;;;;12.35;8.35;;;;;;;3.31;68.10;103001.28;5048250;28;20057;-48
2022/03/19 02:53:14;;;;;;;11.50;7.75;;;;;;;3.29;67.98;102997.03;5050912;28;20053;-50
2022/03/19 02:55:44;;;;;;;11.10;7.32;;;;;;;3.29;68.22;102988.78;5051498;28;20064;-48
2022/03/19 02:58:12;;;;;;;11.25;8.38;;;;;;;3.22;68.50;102988.75;5045309;28;20525;-49
2022/03/19 03:00:39;;;;;;;9.93;7.50;;;;;;;3.24;68.28;102987.47;5051420;28;20053;-50
2022/03/19 03:03:07;;;;;;;10.90;7.22;;;;;;;3.25;68.54;102991.06;5051331;28;20041;-51
2022/03/19 03:05:34;;;;;;;10.00;7.22;;;;;;;3.21;68.15;102985.16;5050117;28;20053;-48
2022/03/19 03:08:02;;;;;;;9.32;7.00;;;;;;;3.22;68.17;102986.84;5049598;28;20382;-50
2022/03/19 03:10:30;;;;;;;10.80;7.22;;;;;;;3.22;67.98;102978.56;5050830;28;20049;-54
2022/03/19 03:12:59;;;;;;;9.95;7.28;;;;;;;3.22;68.78;102975.81;5032579;28;20052;-53
2022/03/19 03:15:29;;;;;;;11.07;7.45;;;;;;;3.21;68.69;102981.53;5032772;28;20050;-50
2022/03/19 03:17:56;;;;;;;14.67;8.97;;;;;;;3.19;69.32;102969.84;5040438;28;20119;-48
2022/03/19 03:20:24;;;;;;;11.40;7.88;;;;;;;3.18;68.86;102981.94;5051349;28;20518;-50
2022/03/19 03:22:51;;;;;;;10.88;8.20;;;;;;;3.17;69.70;102972.84;5038263;28;20059;-48
2022/03/19 03:25:19;;;;;;;10.68;7.53;;;;;;;3.17;69.46;102970.09;5047620;28;20398;-48
2022/03/19 03:27:47;;;;;;;10.30;7.70;;;;;;;3.16;68.86;102970.28;5043742;28;20061;-48
2022/03/19 03:30:18;;;;;;;9.95;8.32;;;;;;;3.14;69.19;102966.88;5050856;28;20049;-50
2022/03/19 03:32:45;;;;;;;8.43;7.25;;;;;;;3.14;69.53;102969.63;5044652;28;20045;-50
2022/03/19 03:35:13;;;;;;;12.95;9.25;;;;;;;3.14;68.56;102972.38;5040893;28;20045;-49
2022/03/19 03:37:40;;;;;;;12.32;8.27;;;;;;;3.12;68.91;102968.97;5044520;28;20414;-51
2022/03/19 03:40:14;;;;;;;10.52;7.85;;;;;;;3.11;69.36;102970.91;5044773;28;20053;-49
2022/03/19 03:42:42;;;;;;;11.77;8.00;;;;;;;3.08;70.05;102973.19;5047965;28;20486;-50
2022/03/19 03:45:10;;;;;;;12.02;8.77;;;;;;;3.07;69.17;102961.34;5050879;28;20382;-51
2022/03/19 03:47:39;;;;;;;10.98;7.93;;;;;;;3.06;69.12;102970.63;5045772;28;20057;-51
2022/03/19 03:50:07;;;;;;;11.55;8.30;;;;;;;3.05;69.13;102969.78;5040502;28;20045;-49
2022/03/19 03:52:35;;;;;;;12.30;8.10;;;;;;;3.04;69.41;102967.22;5044448;28;20470;-51
2022/03/19 03:55:06;;;;;;;9.88;7.60;;;;;;;3.01;69.64;102967.66;5040616;28;20544;-50
2022/03/19 03:57:35;;;;;;;12.45;8.23;;;;;;;2.95;69.81;102960.19;5031410;28;20056;-52
2022/03/19 04:00:04;;;;;;;13.85;8.90;;;;;;;2.98;69.38;102962.53;5041618;28;20053;-49
2022/03/19 04:02:31;;;;;;;11.73;8.55;;;;;;;2.99;69.14;102964.25;5051656;28;20406;-50
2022/03/19 04:05:00;;;;;;;11.57;8.20;;;;;;;3.00;69.23;102961.31;5045922;28;20049;-51
2022/03/19 04:07:28;;;;;;;11.85;7.65;;;;;;;2.98;69.98;102960.66;5046044;28;20053;-48
2022/03/19 04:09:55;;;;;;;12.57;8.07;;;;;;;2.98;69.34;102966.16;5034195;28;20401;-49
2022/03/19 04:12:23;;;;;;;11.20;8.38;;;;;;;2.97;69.42;102960.84;5031248;28;20060;-48
2022/03/19 04:14:50;;;;;;;10.00;7.95;;;;;;;2.94;69.29;102967.63;5031841;28;20049;-51
2022/03/19 04:17:18;;;;;;;11.98;8.65;;;;;;;2.89;69.24;102964.59;5037340;28;20528;-50
2022/03/19 04:19:45;;;;;;;10.07;7.32;;;;;;;2.89;69.73;102963.75;5050202;28;20049;-50
2022/03/19 04:22:14;;;;;;;12.32;8.20;;;;;;;2.90;69.34;102965.44;5051222;28;20049;-52
2022/03/19 04:24:42;;;;;;;12.85;8.13;;;;;;;2.92;69.86;102971.59;5044042;28;20057;-48
2022/03/19 04:27:10;;;;;;;11.40;8.23;;;;;;;2.90;69.64;102966.31;5050753;28;20473;-49
2022/03/19 04:29:37;;;;;;;11.05;7.82;;;;;;;2.86;69.99;102959.50;5050783;28;20049;-50
2022/03/19 04:32:05;;;;;;;11.93;7.85;;;;;;;2.85;69.06;102966.06;5050823;28;20053;-52
2022/03/19 04:34:33;;;;;;;11.95;8.23;;;;;;;2.83;69.89;102969.03;5049949;28;20056;-48
2022/03/19 04:37:00;;;;;;;11.45;7.97;;;;;;;2.82;69.79;102969.22;5047418;28;20410;-49
2022/03/19 04:39:31;;;;;;;12.25;8.40;;;;;;;2.82;69.70;102969.22;5036710;28;20053;-49
2022/03/19 04:41:59;;;;;;;10.73;7.28;;;;;;;2.77;69.53;102969.81;5031085;28;20075;-50
2022/03/19 04:44:27;;;;;;;12.00;8.55;;;;;;;2.77;69.58;102968.94;5030849;28;20045;-48
2022/03/19 04:46:54;;;;;;;11.55;8.02;;;;;;;2.75;70.47;102960.91;5046240;28;20057;-53
2022/03/19 04:49:21;;;;;;;9.82;7.68;;;;;;;2.76;70.14;102962.59;5047531;28;20056;-48
2022/03/19 04:51:53;;;;;;;10.00;7.63;;;;;;;2.74;70.13;102961.97;5048994;28;20163;-49
2022/03/19 04:54:21;;;;;;;12.60;8.27;;;;;;;2.74;69.60;102961.97;5038615;28;20056;-50
2022/03/19 04:56:49;;;;;;;10.98;7.78;;;;;;;2.73;69.96;102963.03;5048093;28;20049;-49
2022/03/19 04:59:17;;;;;;;12.88;8.10;;;;;;;2.73;69.59;102956.66;5053010;28;20053;-48
2022/03/19 05:01:45;;;;;;;9.40;7.40;;;;;;;2.72;69.77;102961.31;5041753;28;20064;-48
2022/03/19 05:04:12;;;;;;;13.43;8.02;;;;;;;2.73;69.40;102957.53;5053655;28;20060;-49
2022/03/19 05:06:39;;;;;;;11.50;7.68;;;;;;;2.72;69.97;102961.31;5054305;28;20079;-49
2022/03/19 05:11:53;;;;;;;13.38;8.73;;;;;;;2.69;69.88;102961.72;5047005;28;20055;-48
2022/03/19 05:14:20;;;;;;;9.45;7.50;;;;;;;2.67;69.66;102961.06;5048198;28;20080;-53
2022/03/19 05:16:48;;;;;;;14.07;8.23;;;;;;;2.65;69.11;102963.16;5034585;28;20065;-49
2022/03/19 05:19:15;;;;;;;9.93;7.53;;;;;;;2.66;69.36;102961.25;5053054;28;20362;-50
2022/03/19 05:21:43;;;;;;;9.85;7.97;;;;;;;2.64;69.60;102962.28;5052398;28;20049;-50
2022/03/19 05:24:10;;;;;;;9.32;7.43;;;;;;;2.61;69.09;102959.13;5049335;28;20477;-51
2022/03/19 05:26:38;;;;;;;10.38;7.30;;;;;;;2.64;69.10;102961.44;5054029;28;20049;-51
2022/03/19 05:29:07;;;;;;;12.02;7.40;;;;;;;2.63;69.88;102959.78;5043654;28;20406;-53
2022/03/19 05:31:34;;;;;;;12.10;8.68;;;;;;;2.61;69.52;102959.97;5034496;28;20053;-49
2022/03/19 05:36:47;;;;;;;10.23;7.85;;;;;;;2.58;69.50;102959.50;5053357;28;20055;-49
2022/03/19 05:39:14;;;;;;;10.73;8.23;;;;;;;2.52;70.01;102961.16;5051562;28;20071;-49
2022/03/19 05:41:44;;;;;;;11.32;8.07;;;;;;;2.57;69.93;102961.41;5034326;28;20054;-51
2022/03/19 05:44:12;;;;;;;14.07;8.48;;;;;;;2.60;69.82;102965.66;5052836;28;20052;-49
2022/03/19 05:46:40;;;;;;;12.45;8.20;;;;;;;2.57;69.32;102960.56;5052035;28;20045;-51
2022/03/19 05:49:07;;;;;;;10.93;7.80;;;;;;;2.63;69.44;102968.88;5049007;28;20061;-49
2022/03/19 05:51:34;;;;;;;9.80;7.57;;;;;;;2.66;69.54;102975.88;5051960;28;20049;-51
2022/03/19 05:54:02;;;;;;;10.15;7.07;;;;;;;2.71;69.06;102972.50;5041966;28;20057;-49
2022/03/19 05:56:30;;;;;;;8.38;6.60;;;;;;;2.77;68.79;102967.06;5034068;28;20057;-50
2022/03/19 05:58:57;;;;;;;12.98;7.68;;;;;;;2.76;69.59;102965.34;5033083;28;20085;-49
2022/03/19 06:01:27;;;;;;;9.93;7.35;;;;;;;2.80;69.09;102963.91;5043691;28;20053;-48
2022/03/19 06:03:54;;;;;;;11.45;8.43;;;;;;;2.76;69.51;102962.59;5047130;28;20058;-50
2022/03/19 06:06:21;;;;;;;9.25;6.80;;;;;;;2.83;68.71;102974.53;5052976;28;20497;-50
2022/03/19 06:08:49;;;;;;;10.52;7.20;;;;;;;2.89;68.66;102974.75;5051943;28;20063;-49
2022/03/19 06:11:16;;;;;;;11.05;7.30;;;;;;;2.94;69.02;102977.75;5035170;28;20054;-52
2022/03/19 06:13:44;;;;;;;9.52;7.30;;;;;;;3.00;68.62;102972.31;5044595;28;20044;-48
2022/03/19 06:16:12;;;;;;;11.65;7.85;;;;;;;3.09;68.50;102981.25;5037965;28;20052;-52
2022/03/19 06:18:45;;;;;;;9.15;7.60;;;;;;;3.11;67.89;102981.91;5049654;28;20045;-48
2022/03/19 06:21:13;;;;;;;11.63;8.20;;;;;;;3.13;67.81;102974.28;5053129;28;20474;-49
2022/03/19 06:23:41;;;;;;;8.52;6.90;;;;;;;3.22;68.12;102974.97;5049490;28;20072;-51
2022/03/19 06:26:08;;;;;;;10.48;7.13;;;;;;;3.36;67.60;102970.38;5051399;28;20057;-50
2022/03/19 06:28:35;;;;;;;9.77;6.93;;;;;;;3.45;67.81;102974.66;5048412;28;20489;-49
2022/03/19 06:31:03;;;;;;;11.98;6.85;;;;;;;3.67;67.92;102980.88;5051515;28;20071;-51
2022/03/19 06:33:30;;;;;;;9.25;7.55;;;;;;;3.81;67.55;102973.53;5050927;28;20417;-52
2022/03/19 06:38:46;;;;;;;10.10;7.95;;;;;;;4.39;66.49;102976.63;5054052;28;20060;-47
2022/03/19 06:41:14;;;;;;;9.38;7.57;;;;;;;4.72;65.69;102964.69;5050046;28;20048;-52
2022/03/19 06:43:43;;;;;;;10.40;7.15;;;;;;;5.07;65.29;102972.72;5052101;28;20064;-50
2022/03/19 06:46:11;;;;;;;11.75;7.10;;;;;;;5.50;64.10;102966.63;5052748;28;20478;-49
2022/03/19 06:48:38;;;;;;;9.45;7.20;;;;;;;5.89;62.62;102967.53;5043841;28;20049;-50
2022/03/19 06:51:07;;;;;;;9.88;6.43;;;;;;;6.50;61.47;102966.91;5049013;28;20052;-49
2022/03/19 06:53:34;;;;;;;11.52;7.07;;;;;;;7.26;58.76;102964.03;5047266;28;20405;-48
2022/03/19 06:56:03;;;;;;;9.20;6.40;;;;;;;7.90;57.70;102961.75;5052609;28;20052;-50
2022/03/19 06:58:31;;;;;;;10.55;6.65;;;;;;;8.68;56.16;102962.69;5037311;28;20053;-49
2022/03/19 07:00:58;;;;;;;10.18;6.43;;;;;;;9.51;54.37;102955.09;5051691;28;20060;-54
2022/03/19 07:03:26;;;;;;;10.52;7.47;;;;;;;10.24;53.25;102944.25;5035611;28;20061;-50
2022/03/19 07:05:53;;;;;;;10.50;7.57;;;;;;;11.11;52.17;102946.53;5040386;28;20049;-50
2022/03/19 07:08:22;;;;;;;9.73;6.28;;;;;;;11.60;51.74;102948.56;5046695;28;20485;-52
2022/03/19 07:10:49;;;;;;;12.50;7.00;;;;;;;12.57;51.13;102949.56;5048684;28;20402;-53
2022/03/19 07:13:18;;;;;;;9.52;6.30;;;;;;;13.39;49.12;102952.91;5051393;28;20485;-52
2022/03/19 07:15:45;;;;;;;9.38;6.97;;;;;;;14.36;46.65;102941.13;5051202;28;20049;-50
2022/03/19 07:18:12;;;;;;;9.90;6.35;;;;;;;15.32;44.83;102930.03;5048541;28;20053;-53
2022/03/19 07:20:40;;;;;;;13.75;6.25;;;;;;;16.39;42.29;102936.19;5051505;28;20053;-52
2022/03/19 07:23:08;;;;;;;9.82;6.32;;;;;;;17.27;40.48;102937.03;5051933;28;20058;-50
2022/03/19 07:25:38;;;;;;;6.15;5.00;;;;;;;18.07;38.67;102926.13;5049805;28;20053;-51
2022/03/19 07:28:08;;;;;;;7.85;6.03;;;;;;;19.20;36.21;102925.81;5052104;28;20065;-53
2022/03/19 07:30:37;;;;;;;6.40;4.47;;;;;;;20.18;35.46;102918.00;5049946;28;20053;-49
2022/03/19 07:33:05;;;;;;;9.02;4.90;;;;;;;21.12;33.42;102918.13;5050796;28;20054;-54
2022/03/19 07:35:33;;;;;;;9.52;5.30;;;;;;;21.70;31.76;102925.50;5041617;28;20072;-52
2022/03/19 07:38:02;;;;;;;10.05;5.13;;;;;;;22.45;30.08;102909.16;5038173;28;20401;-50
2022/03/19 07:43:13;;;;;;;9.05;5.30;;;;;;;23.75;28.17;102903.25;5019279;28;20060;-50
2022/03/19 07:45:44;;;;;;;7.35;5.55;;;;;;;24.38;26.66;102900.38;5043101;28;20055;-50
2022/03/19 07:48:12;;;;;;;9.68;5.18;;;;;;;24.84;26.19;102904.97;5031830;28;20053;-51
2022/03/19 07:50:40;;;;;;;7.50;4.75;;;;;;;25.72;25.04;102896.03;5041971;28;20053;-54
2022/03/19 07:53:07;;;;;;;7.78;5.13;;;;;;;26.26;23.91;102891.97;5051261;28;20049;-53
2022/03/19 07:55:35;;;;;;;6.78;4.47;;;;;;;26.79;23.17;102895.50;5050671;28;20057;-49
2022/03/19 07:58:03;;;;;;;6.85;4.40;;;;;;;27.25;22.55;102892.19;5045750;28;20049;-49
2022/03/19 08:00:32;;;;;;;6.78;4.78;;;;;;;27.43;22.15;102896.31;5038346;28;20057;-51
2022/03/19 08:02:59;;;;;;;7.68;4.63;;;;;;;28.05;21.80;102892.81;5049574;28;20378;-50
2022/03/19 08:05:27;;;;;;;5.82;4.28;;;;;;;28.62;21.08;102885.41;5048520;28;20053;-51
2022/03/19 08:07:54;;;;;;;7.25;4.97;;;;;;;28.28;21.09;102893.69;5034700;28;20045;-52
2022/03/19 08:10:27;;;;;;;6.30;4.32;;;;;;;28.80;20.60;102888.56;5050670;28;20417;-49
2022/03/19 08:13:05;;;;;;;9.35;4.63;;;;;;;29.29;19.66;102901.31;5032265;28;20069;-49
2022/03/19 08:15:34;;;;;;;5.72;4.10;;;;;;;29.69;19.35;102902.72;5041949;28;20057;-50
2022/03/19 08:18:02;;;;;;;6.57;4.30;;;;;;;29.75;19.01;102904.09;5046197;28;20398;-52
2022/03/19 08:20:29;;;;;;;6.47;4.30;;;;;;;30.32;18.71;102893.38;5050968;28;20049;-52
2022/03/19 08:22:59;;;;;;;9.32;4.80;;;;;;;30.02;18.53;102889.66;5046572;28;20056;-55
2022/03/19 08:25:27;;;;;;;13.25;5.53;;;;;;;29.73;18.65;102883.53;5042192;28;20474;-51
2022/03/19 08:27:57;;;;;;;6.78;4.40;;;;;;;30.19;18.70;102888.22;5037760;28;20060;-50
2022/03/19 08:30:24;;;;;;;6.00;4.43;;;;;;;30.26;18.44;102883.41;5047412;28;20052;-51
2022/03/19 08:32:53;;;;;;;5.85;3.92;;;;;;;31.02;17.86;102876.41;5044779;28;20060;-51
2022/03/19 08:35:20;;;;;;;6.15;4.15;;;;;;;31.35;17.53;102875.41;5051668;28;20052;-54
2022/03/19 08:37:47;;;;;;;6.70;4.43;;;;;;;31.91;17.60;102890.56;5046448;28;20081;-52
2022/03/19 08:40:17;;;;;;;8.52;4.97;;;;;;;32.60;15.83;102873.53;5053084;28;20057;-52
2022/03/19 08:42:46;;;;;;;6.95;4.60;;;;;;;32.19;16.41;102874.63;5036343;28;20418;-50
2022/03/19 08:45:16;;;;;;;6.00;4.43;;;;;;;32.96;15.81;102874.34;5050230;28;20061;-55
2022/03/19 08:47:46;;;;;;;5.78;4.57;;;;;;;33.12;15.48;102877.69;5052825;28;20064;-53
2022/03/19 08:50:15;;;;;;;6.13;4.70;;;;;;;33.42;14.76;102870.63;5053380;28;20418;-54
2022/03/19 08:52:43;;;;;;;6.13;4.22;;;;;;;33.38;15.03;102866.09;5052377;28;20504;-53
2022/03/19 08:55:11;;;;;;;6.75;4.85;;;;;;;33.70;14.47;102868.91;5055109;28;20064;-50
2022/03/19 08:57:38;;;;;;;6.15;4.50;;;;;;;33.94;14.52;102873.78;5048931;28;20068;-53
2022/03/19 09:00:12;;;;;;;6.10;4.20;;;;;;;34.17;14.41;102863.78;5042565;28;20045;-53
2022/03/19 09:02:39;;;;;;;7.22;4.60;;;;;;;34.51;13.60;102863.16;5047366;28;20045;-54
2022/03/19 09:05:08;;;;;;;5.50;4.03;;;;;;;34.43;13.79;102861.56;5053560;28;20053;-52
2022/03/19 09:07:36;;;;;;;7.68;4.80;;;;;;;34.69;13.68;102857.25;5040316;28;20995;-55
2022/03/19 09:10:04;;;;;;;6.75;4.53;;;;;;;34.66;13.35;102853.13;5053791;28;20433;-51
2022/03/19 09:12:32;;;;;;;5.35;4.30;;;;;;;34.31;14.29;102857.91;5054032;28;20057;-54
2022/03/19 09:14:59;;;;;;;8.63;4.45;;;;;;;34.80;14.06;102840.63;5053432;28;20060;-50
2022/03/19 09:17:28;;;;;;;4.47;3.70;;;;;;;35.33;13.41;102844.28;5052429;28;20056;-53
2022/03/19 09:19:55;;;;;;;7.55;4.18;;;;;;;35.76;12.84;102843.78;5047896;28;20476;-56
2022/03/19 09:22:23;;;;;;;6.07;4.05;;;;;;;35.82;12.80;102844.94;5034670;28;20065;-55
2022/03/19 09:24:54;;;;;;;6.50;4.37;;;;;;;35.96;12.81;102841.84;5045164;28;20057;-51
2022/03/19 09:27:22;;;;;;;6.20;3.92;;;;;;;36.15;12.31;102839.56;5046154;28;20362;-56
2022/03/19 09:29:49;;;;;;;6.80;3.90;;;;;;;36.29;12.70;102841.44;5052370;28;20049;-54
2022/03/19 09:32:18;;;;;;;7.28;4.00;;;;;;;36.61;12.14;102834.28;5044716;28;20496;-51
2022/03/19 09:34:49;;;;;;;5.20;4.00;;;;;;;36.74;12.05;102832.44;5042560;28;20512;-53
2022/03/19 09:37:16;;;;;;;4.43;3.25;;;;;;;36.80;11.81;102833.56;5050679;28;20049;-52
2022/03/19 09:39:47;;;;;;;6.18;3.80;;;;;;;36.37;11.69;102822.63;5041415;28;20410;-53
2022/03/19 09:42:15;;;;;;;4.80;3.58;;;;;;;36.80;11.60;102832.75;5043097;28;20052;-55
2022/03/19 09:44:44;;;;;;;5.43;3.53;;;;;;;36.33;12.08;102840.13;5038546;28;20068;-53
2022/03/19 09:47:11;;;;;;;;;;;;;;;36.09;11.45;102835.47;5041874;28;20520;-52
2022/03/19 09:49:38;;;;;;;6.05;4.00;;;;;;;35.76;12.08;102820.56;5045048;28;20392;-55
2022/03/19 09:52:06;;;;;;;7.80;4.18;;;;;;;36.14;12.46;102820.50;5044958;28;20052;-56
2022/03/19 09:54:34;;;;;;;6.88;4.25;;;;;;;36.29;11.64;102819.03;5051321;28;20045;-54
2022/03/19 09:57:02;;;;;;;5.85;4.30;;;;;;;36.26;11.87;102819.91;5043647;28;20053;-55
2022/03/19 09:59:37;;;;;;;6.00;3.83;;;;;;;36.36;11.86;102804.41;5050040;28;20511;-51
2022/03/19 10:02:11;;;;;;;5.88;3.55;;;;;;;36.85;11.45;102814.81;5037717;28;20061;-55
2022/03/19 10:04:41;;;;;;;6.78;3.53;;;;;;;37.00;11.01;102813.25;5037452;28;20061;-55
2022/03/19 10:09:56;;;;;;;5.40;3.60;;;;;;;36.30;11.11;102803.25;5053957;28;20433;-57
2022/03/19 10:12:27;;;;;;;6.28;3.40;;;;;;;36.98;11.21;102796.31;5051871;28;20056;-55
2022/03/19 10:14:58;;;;;;;5.53;3.42;;;;;;;37.13;10.76;102796.88;5053267;28;20053;-55
2022/03/19 10:17:30;;;;;;;4.53;3.30;;;;;;;37.27;10.62;102792.03;5050658;28;20536;-56
2022/03/19 10:20:02;;;;;;;5.47;3.22;;;;;;;36.85;11.02;102791.56;5046574;28;20045;-53
2022/03/19 10:22:30;;;;;;;4.93;3.13;;;;;;;36.84;10.83;102796.56;5046812;28;20057;-53
2022/03/19 10:24:58;;;;;;;;;;;;;;;37.02;10.64;102789.59;5052328;28;20056;-56
2022/03/19 10:27:26;;;;;;;4.05;2.95;;;;;;;37.52;10.18;102782.78;5037388;28;19921;-56
2022/03/19 10:30:10;;;;;;;5.60;3.00;;;;;;;37.64;9.91;102784.25;5042500;28;20482;-56
2022/03/19 10:32:40;;;;;;;5.60;3.50;;;;;;;37.77;9.48;102782.28;5044093;28;20057;-55
2022/03/19 10:35:25;;;;;;;4.28;2.70;;;;;;;37.30;8.78;102767.91;5043130;28;20049;-50
2022/03/19 10:37:55;;;;;;;4.40;2.70;;;;;;;37.38;9.34;102770.22;5045061;28;20401;-53
2022/03/19 10:40:23;;;;;;;3.50;2.28;;;;;;;37.37;8.89;102764.84;5039113;28;20049;-51
2022/03/19 10:42:58;;;;;;;6.40;2.30;;;;;;;37.68;8.89;102761.72;5039394;28;20059;-52
2022/03/19 10:45:26;;;;;;;4.63;2.00;;;;;;;37.30;8.69;102751.28;5046569;28;20375;-54
2022/03/19 10:47:54;;;;;;;4.28;2.38;;;;;;;37.28;8.84;102755.91;5041705;28;20056;-53
2022/03/19 10:50:23;;;;;;;2.97;2.08;;;;;;;37.01;9.03;102751.00;5045678;28;20049;-51
2022/03/19 10:52:52;;;;;;;3.90;2.03;;;;;;;37.45;8.39;102753.88;5044291;28;20525;-54
2022/03/19 10:55:20;;;;;;;4.15;2.13;;;;;;;37.31;8.24;102737.56;5039160;28;20064;-53
2022/03/19 10:57:47;;;;;;;3.42;2.20;;;;;;;37.19;8.18;102736.13;5044829;28;20509;-53
2022/03/19 11:00:16;;;;;;;4.03;2.13;;;;;;;36.92;8.70;102731.25;5048878;28;20045;-50
2022/03/19 11:02:48;;;;;;;3.28;1.90;;;;;;;37.41;8.58;102718.25;5035185;28;20053;-54
2022/03/19 11:05:19;;;;;;;3.97;2.20;;;;;;;37.26;7.77;102723.56;5042557;28;20049;-53
2022/03/19 11:07:47;;;;;;;3.67;2.30;;;;;;;36.81;8.56;102709.47;5038524;28;20352;-53
2022/03/19 11:10:15;;;;;;;3.83;2.20;;;;;;;36.53;8.62;102712.44;5038593;28;20486;-51
2022/03/19 11:12:50;;;;;;;3.17;1.90;;;;;;;36.99;8.77;102715.75;5045694;28;20056;-52
2022/03/19 11:15:19;;;;;;;2.88;1.70;;;;;;;36.81;8.67;102707.38;5043056;28;20049;-51
2022/03/19 11:17:51;;;;;;;3.80;1.90;;;;;;;36.48;8.57;102700.53;5045717;28;20041;-50
2022/03/19 11:20:18;;;;;;;4.20;1.60;;;;;;;36.58;8.01;102697.44;5038026;28;20490;-53
2022/03/19 11:22:50;;;;;;;2.75;1.92;;;;;;;36.32;8.71;102684.63;5046292;28;20041;-49
2022/03/19 11:25:26;;;;;;;3.40;1.58;;;;;;;35.71;8.42;102697.19;5038932;28;20045;-53
2022/03/19 11:27:56;;;;;;;3.47;1.60;;;;;;;35.23;8.76;102688.75;5046254;28;20539;-50
2022/03/19 11:30:25;;;;;;;3.15;1.70;;;;;;;35.14;8.58;102686.38;5035734;28;20053;-50
2022/03/19 11:33:10;;;;;;;3.05;2.17;;;;;;;35.13;9.30;102676.00;5031929;28;20049;-51
2022/03/19 11:35:39;;;;;;;4.03;1.65;;;;;;;35.26;8.39;102688.72;5050944;28;20057;-52
2022/03/19 11:38:11;;;;;;;3.63;1.75;;;;;;;33.60;9.13;102679.00;5051252;28;20055;-54
2022/03/19 11:40:42;;;;;;;4.32;1.90;;;;;;;34.17;9.72;102664.19;5047900;28;20402;-51
2022/03/19 11:43:10;;;;;;;3.65;2.10;;;;;;;34.59;9.82;102656.34;5051864;28;20048;-51
2022/03/19 11:45:40;;;;;;;6.22;1.85;;;;;;;34.62;9.11;102651.75;5051451;28;20049;-54
2022/03/19 11:48:52;;;;;;;4.13;1.95;;;;;;;33.99;9.76;102658.50;5051642;28;20080;-50
2022/03/19 11:51:37;;;;;;;4.22;2.00;;;;;;;34.33;9.61;102652.03;5049706;28;20052;-52